KMIB/MIB METAR and TAF weather

Enter ICAO airport designator
Station Type Date Time Source
KMIB METAR 2019/12/14 18:56 UTC NOAA

KMIB 141856Z AUTO 00000KT 10SM FEW090 M20/M22 A3002 RMK AO2 SLP225 T11981224 $


Station Type Date Time Source
KMIB Decoded METAR 2019/12/14 18:56 UTC NOAA

Minot Air Force Base, ND, United States (KMIB) 48-25N 101-21W
Dec 14, 2019 - 01:56 PM EST / 2019.12.14 1856 UTC
Wind: Calm:0
Visibility: 10 mile(s):0
Sky conditions: mostly clear
Temperature: -3.6 F (-19.8 C)
Dew Point: -8.3 F (-22.4 C)
Relative Humidity: 79%
Pressure (altimeter): 30.02 in. Hg (1016 hPa)
ob: KMIB 141856Z AUTO 00000KT 10SM FEW090 M20/M22 A3002 RMK AO2 SLP225 T11981224
cycle: 19

Station Type Date Time Source
KMIB TAF 2019/12/13 21:39 UTC NOAA

TAF TAF
AMD KMIB 132119Z 1321/1423 33010KT 9999 SCT010 BKN015 620204 QNH2990INS
BECMG 1410/1411 31006KT 9999 SCT030 BKN050 QNH3006INS TXM13/1321Z TNM25/1410Z LAST NO
AMDS AFT 1323 NEXT 1609

Example: see airport list